sensor_id;sensor_type;location;lat;lon;timestamp;pressure;altitude;pressure_sealevel;temperature;humidity
3178;BME280;38141;42.666;23.344;2024-03-23T00:55:41;94694.56;;;4.37;100.00
3178;BME280;38141;42.666;23.344;2024-03-23T00:58:07;94713.16;;;4.45;100.00
3178;BME280;38141;42.666;23.344;2024-03-23T01:00:35;94721.31;;;4.65;100.00
3178;BME280;38141;42.666;23.344;2024-03-23T01:03:01;94707.84;;;4.61;100.00
3178;BME280;38141;42.666;23.344;2024-03-23T01:05:28;94715.44;;;4.59;100.00
3178;BME280;38141;42.666;23.344;2024-03-23T01:07:56;94702.34;;;4.42;100.00
3178;BME280;38141;42.666;23.344;2024-03-23T01:10:23;94707.72;;;4.42;100.00
3178;BME280;38141;42.666;23.344;2024-03-23T01:12:52;94712.41;;;4.45;100.00
3178;BME280;38141;42.666;23.344;2024-03-23T01:15:19;94703.66;;;4.48;100.00
3178;BME280;38141;42.666;23.344;2024-03-23T01:17:45;94702.72;;;4.56;100.00
3178;BME280;38141;42.666;23.344;2024-03-23T01:20:12;94701.81;;;4.36;100.00
3178;BME280;38141;42.666;23.344;2024-03-23T01:22:38;94699.34;;;4.43;100.00
3178;BME280;38141;42.666;23.344;2024-03-23T01:25:07;94685.28;;;4.19;100.00
3178;BME280;38141;42.666;23.344;2024-03-23T01:27:33;94703.75;;;4.36;100.00
3178;BME280;38141;42.666;23.344;2024-03-23T01:30:01;94682.50;;;4.15;100.00
3178;BME280;38141;42.666;23.344;2024-03-23T01:32:27;94699.13;;;4.21;100.00
3178;BME280;38141;42.666;23.344;2024-03-23T01:34:54;94694.56;;;4.09;100.00
3178;BME280;38141;42.666;23.344;2024-03-23T01:37:20;94700.47;;;4.15;100.00
3178;BME280;38141;42.666;23.344;2024-03-23T01:39:47;94698.03;;;4.10;100.00
3178;BME280;38141;42.666;23.344;2024-03-23T01:42:14;94639.50;;;3.80;100.00
3178;BME280;38141;42.666;23.344;2024-03-23T01:44:41;94670.31;;;4.02;100.00
3178;BME280;38141;42.666;23.344;2024-03-23T01:47:10;94707.84;;;4.18;100.00
3178;BME280;38141;42.666;23.344;2024-03-23T01:49:37;94715.47;;;4.03;100.00
3178;BME280;38141;42.666;23.344;2024-03-23T01:52:03;94703.13;;;3.87;100.00
3178;BME280;38141;42.666;23.344;2024-03-23T01:54:31;94708.28;;;3.80;100.00
3178;BME280;38141;42.666;23.344;2024-03-23T01:56:57;94701.81;;;3.81;100.00
3178;BME280;38141;42.666;23.344;2024-03-23T01:59:25;94717.31;;;3.75;100.00
3178;BME280;38141;42.666;23.344;2024-03-23T02:01:51;94706.06;;;3.70;100.00
3178;BME280;38141;42.666;23.344;2024-03-23T02:04:18;94672.78;;;3.55;100.00
3178;BME280;38141;42.666;23.344;2024-03-23T02:06:44;94703.25;;;3.78;100.00
3178;BME280;38141;42.666;23.344;2024-03-23T02:09:12;94709.13;;;3.96;100.00
3178;BME280;38141;42.666;23.344;2024-03-23T02:11:39;94695.19;;;3.63;100.00
3178;BME280;38141;42.666;23.344;2024-03-23T02:14:06;94700.09;;;3.61;100.00
3178;BME280;38141;42.666;23.344;2024-03-23T02:16:36;94687.16;;;3.50;100.00
3178;BME280;38141;42.666;23.344;2024-03-23T02:19:03;94703.50;;;3.73;100.00
3178;BME280;38141;42.666;23.344;2024-03-23T02:21:29;94703.06;;;3.71;100.00
3178;BME280;38141;42.666;23.344;2024-03-23T02:23:59;94699.53;;;3.67;100.00
3178;BME280;38141;42.666;23.344;2024-03-23T02:26:24;94717.56;;;3.70;100.00
3178;BME280;38141;42.666;23.344;2024-03-23T02:28:51;94702.66;;;3.57;100.00
3178;BME280;38141;42.666;23.344;2024-03-23T02:31:18;94702.19;;;3.67;100.00
3178;BME280;38141;42.666;23.344;2024-03-23T02:33:45;94693.09;;;3.44;100.00
3178;BME280;38141;42.666;23.344;2024-03-23T02:36:10;94714.88;;;3.70;100.00
3178;BME280;38141;42.666;23.344;2024-03-23T02:38:37;94716.69;;;3.66;100.00
3178;BME280;38141;42.666;23.344;2024-03-23T02:41:05;94715.66;;;3.71;100.00
3178;BME280;38141;42.666;23.344;2024-03-23T02:43:32;94710.13;;;3.91;100.00
3178;BME280;38141;42.666;23.344;2024-03-23T04:15:35;94707.00;;;2.64;100.00
3178;BME280;38141;42.666;23.344;2024-03-23T04:18:03;94732.97;;;2.76;100.00
3178;BME280;38141;42.666;23.344;2024-03-23T04:20:29;94723.59;;;2.82;100.00
3178;BME280;38141;42.666;23.344;2024-03-23T04:22:56;94684.31;;;2.58;100.00
3178;BME280;38141;42.666;23.344;2024-03-23T04:25:25;94719.16;;;2.74;100.00
3178;BME280;38141;42.666;23.344;2024-03-23T04:27:52;94707.47;;;2.66;100.00
3178;BME280;38141;42.666;23.344;2024-03-23T04:30:18;94696.78;;;2.66;100.00
3178;BME280;38141;42.666;23.344;2024-03-23T04:32:57;94724.47;;;2.74;100.00
3178;BME280;38141;42.666;23.344;2024-03-23T04:35:23;94723.94;;;2.81;100.00
3178;BME280;38141;42.666;23.344;2024-03-23T04:37:51;94691.28;;;2.51;100.00
3178;BME280;38141;42.666;23.344;2024-03-23T04:40:19;94712.78;;;2.54;100.00
3178;BME280;38141;42.666;23.344;2024-03-23T04:42:46;94743.44;;;2.93;100.00
3178;BME280;38141;42.666;23.344;2024-03-23T04:45:13;94732.94;;;3.73;100.00
3178;BME280;38141;42.666;23.344;2024-03-23T04:47:40;94725.50;;;4.07;100.00
3178;BME280;38141;42.666;23.344;2024-03-23T04:50:09;94731.00;;;4.54;100.00
3178;BME280;38141;42.666;23.344;2024-03-23T04:52:37;94717.63;;;5.16;100.00
3178;BME280;38141;42.666;23.344;2024-03-23T04:55:05;94731.19;;;5.39;100.00
3178;BME280;38141;42.666;23.344;2024-03-23T04:57:33;94739.00;;;5.79;100.00
3178;BME280;38141;42.666;23.344;2024-03-23T04:59:59;94748.78;;;6.83;94.20
3178;BME280;38141;42.666;23.344;2024-03-23T05:02:26;94742.31;;;7.07;86.95
3178;BME280;38141;42.666;23.344;2024-03-23T05:04:53;94684.66;;;7.57;83.21
3178;BME280;38141;42.666;23.344;2024-03-23T05:07:21;94736.19;;;8.38;73.18
3178;BME280;38141;42.666;23.344;2024-03-23T05:09:53;94698.47;;;8.41;70.58
3178;BME280;38141;42.666;23.344;2024-03-23T05:12:19;94720.47;;;9.17;67.37
3178;BME280;38141;42.666;23.344;2024-03-23T05:14:46;94725.56;;;10.46;63.13
3178;BME280;38141;42.666;23.344;2024-03-23T05:17:13;94716.34;;;10.68;59.45
3178;BME280;38141;42.666;23.344;2024-03-23T05:19:40;94730.66;;;10.65;59.43
3178;BME280;38141;42.666;23.344;2024-03-23T05:22:06;94730.66;;;10.68;58.99
3178;BME280;38141;42.666;23.344;2024-03-23T05:24:34;94728.47;;;11.45;56.84
3178;BME280;38141;42.666;23.344;2024-03-23T05:27:00;94724.63;;;11.88;54.92
3178;BME280;38141;42.666;23.344;2024-03-23T05:29:27;94716.34;;;12.52;53.42
3178;BME280;38141;42.666;23.344;2024-03-23T05:31:55;94709.38;;;12.40;53.68
3178;BME280;38141;42.666;23.344;2024-03-23T05:34:22;94722.41;;;13.50;50.49
3178;BME280;38141;42.666;23.344;2024-03-23T05:36:48;94716.97;;;13.95;48.63
3178;BME280;38141;42.666;23.344;2024-03-23T05:39:15;94718.59;;;13.37;50.78
3178;BME280;38141;42.666;23.344;2024-03-23T05:41:44;94720.31;;;14.84;46.18
3178;BME280;38141;42.666;23.344;2024-03-23T05:44:11;94723.91;;;14.44;44.77
3178;BME280;38141;42.666;23.344;2024-03-23T05:46:37;94720.84;;;14.35;46.24
3178;BME280;38141;42.666;23.344;2024-03-23T05:49:04;94723.13;;;13.58;46.73
3178;BME280;38141;42.666;23.344;2024-03-23T05:51:30;94724.38;;;14.69;44.27
3178;BME280;38141;42.666;23.344;2024-03-23T05:53:57;94721.91;;;15.08;43.85
3178;BME280;38141;42.666;23.344;2024-03-23T05:56:23;94678.84;;;14.69;43.37
3178;BME280;38141;42.666;23.344;2024-03-23T05:58:53;94693.78;;;15.42;42.48
3178;BME280;38141;42.666;23.344;2024-03-23T06:01:18;94692.06;;;15.28;42.65
3178;BME280;38141;42.666;23.344;2024-03-23T06:03:46;94733.63;;;15.86;41.78
3178;BME280;38141;42.666;23.344;2024-03-23T06:06:12;94717.88;;;15.97;41.62
3178;BME280;38141;42.666;23.344;2024-03-23T06:08:39;94727.16;;;16.66;40.75
3178;BME280;38141;42.666;23.344;2024-03-23T06:11:05;94716.53;;;16.71;40.84
3178;BME280;38141;42.666;23.344;2024-03-23T06:13:34;94722.84;;;17.04;40.22
3178;BME280;38141;42.666;23.344;2024-03-23T06:16:05;94716.50;;;17.27;39.54
3178;BME280;38141;42.666;23.344;2024-03-23T06:18:32;94710.81;;;17.02;39.51
3178;BME280;38141;42.666;23.344;2024-03-23T06:20:59;94710.75;;;17.57;38.42
3178;BME280;38141;42.666;23.344;2024-03-23T06:23:26;94704.84;;;17.07;38.52
3178;BME280;38141;42.666;23.344;2024-03-23T06:25:52;94695.31;;;16.95;38.60
3178;BME280;38141;42.666;23.344;2024-03-23T06:28:19;94717.31;;;17.44;38.28
3178;BME280;38141;42.666;23.344;2024-03-23T06:30:46;94690.66;;;15.93;40.06
3178;BME280;38141;42.666;23.344;2024-03-23T06:33:15;94710.41;;;17.03;38.93
3178;BME280;38141;42.666;23.344;2024-03-23T06:35:41;94690.94;;;16.81;38.55
3178;BME280;38141;42.666;23.344;2024-03-23T06:38:09;94694.50;;;17.50;37.77
3178;BME280;38141;42.666;23.344;2024-03-23T06:40:36;94684.91;;;17.42;37.71
3178;BME280;38141;42.666;23.344;2024-03-23T06:45:34;94718.97;;;18.06;36.77
3178;BME280;38141;42.666;23.344;2024-03-23T06:48:03;94711.31;;;17.85;36.84
3178;BME280;38141;42.666;23.344;2024-03-23T06:50:29;94709.31;;;17.69;37.24
3178;BME280;38141;42.666;23.344;2024-03-23T06:52:56;94720.09;;;17.60;37.06
3178;BME280;38141;42.666;23.344;2024-03-23T06:55:22;94719.75;;;18.51;35.64
3178;BME280;38141;42.666;23.344;2024-03-23T06:57:50;94710.00;;;18.79;35.73
3178;BME280;38141;42.666;23.344;2024-03-23T07:00:16;94718.75;;;19.28;34.99
3178;BME280;38141;42.666;23.344;2024-03-23T07:02:45;94714.13;;;17.97;36.39
3178;BME280;38141;42.666;23.344;2024-03-23T07:05:11;94713.94;;;17.72;37.16
3178;BME280;38141;42.666;23.344;2024-03-23T07:07:38;94703.38;;;18.19;36.38
3178;BME280;38141;42.666;23.344;2024-03-23T07:10:05;94706.75;;;17.94;36.28
3178;BME280;38141;42.666;23.344;2024-03-23T07:12:32;94704.34;;;18.57;35.87
3178;BME280;38141;42.666;23.344;2024-03-23T07:14:58;94696.56;;;18.40;35.06
3178;BME280;38141;42.666;23.344;2024-03-23T07:17:25;94700.34;;;17.68;36.72
3178;BME280;38141;42.666;23.344;2024-03-23T07:19:52;94697.81;;;18.22;37.94
3178;BME280;38141;42.666;23.344;2024-03-23T07:22:19;94706.63;;;18.88;37.23
3178;BME280;38141;42.666;23.344;2024-03-23T07:24:45;94699.75;;;18.38;36.90
3178;BME280;38141;42.666;23.344;2024-03-23T07:27:12;94693.19;;;18.64;38.76
3178;BME280;38141;42.666;23.344;2024-03-23T07:29:38;94696.75;;;17.71;37.76
3178;BME280;38141;42.666;23.344;2024-03-23T07:32:05;94690.75;;;17.44;37.39
3178;BME280;38141;42.666;23.344;2024-03-23T07:34:31;94689.88;;;18.41;37.01
3178;BME280;38141;42.666;23.344;2024-03-23T07:37:00;94679.94;;;18.47;36.17
3178;BME280;38141;42.666;23.344;2024-03-23T07:39:26;94681.41;;;18.06;36.77
3178;BME280;38141;42.666;23.344;2024-03-23T07:41:53;94673.97;;;18.36;36.16
3178;BME280;38141;42.666;23.344;2024-03-23T07:44:19;94675.97;;;18.64;36.04
3178;BME280;38141;42.666;23.344;2024-03-23T07:46:46;94683.63;;;18.40;36.17
3178;BME280;38141;42.666;23.344;2024-03-23T07:49:12;94678.94;;;18.70;35.88
3178;BME280;38141;42.666;23.344;2024-03-23T07:51:39;94682.19;;;18.93;35.56
3178;BME280;38141;42.666;23.344;2024-03-23T07:54:06;94676.03;;;18.89;35.68
3178;BME280;38141;42.666;23.344;2024-03-23T07:56:33;94670.88;;;18.91;35.25
3178;BME280;38141;42.666;23.344;2024-03-23T07:58:59;94680.13;;;19.23;35.41
3178;BME280;38141;42.666;23.344;2024-03-23T08:01:26;94666.84;;;19.84;34.35
3178;BME280;38141;42.666;23.344;2024-03-23T08:03:52;94670.13;;;20.82;33.28
3178;BME280;38141;42.666;23.344;2024-03-23T08:06:20;94671.25;;;21.16;32.67
3178;BME280;38141;42.666;23.344;2024-03-23T08:08:52;94677.66;;;23.29;30.44
3178;BME280;38141;42.666;23.344;2024-03-23T08:11:27;94669.19;;;25.08;28.66
3178;BME280;38141;42.666;23.344;2024-03-23T08:13:54;94672.50;;;24.45;29.39
3178;BME280;38141;42.666;23.344;2024-03-23T08:16:21;94675.00;;;24.19;29.58
3178;BME280;38141;42.666;23.344;2024-03-23T08:18:47;94673.44;;;23.01;30.31
3178;BME280;38141;42.666;23.344;2024-03-23T08:21:14;94674.22;;;22.20;30.93
3178;BME280;38141;42.666;23.344;2024-03-23T08:23:40;94663.63;;;23.00;30.59
3178;BME280;38141;42.666;23.344;2024-03-23T08:26:08;94664.59;;;22.70;30.34
3178;BME280;38141;42.666;23.344;2024-03-23T08:28:36;94657.06;;;22.97;30.36
3178;BME280;38141;42.666;23.344;2024-03-23T08:31:07;94672.09;;;22.42;30.95
3178;BME280;38141;42.666;23.344;2024-03-23T08:33:33;94664.00;;;21.71;31.57
3178;BME280;38141;42.666;23.344;2024-03-23T08:36:02;94661.44;;;20.62;32.68
3178;BME280;38141;42.666;23.344;2024-03-23T08:38:28;94663.63;;;21.20;32.17
3178;BME280;38141;42.666;23.344;2024-03-23T08:40:58;94640.34;;;23.43;30.01
3178;BME280;38141;42.666;23.344;2024-03-23T08:43:25;94643.03;;;25.24;27.81
3178;BME280;38141;42.666;23.344;2024-03-23T08:45:53;94642.06;;;25.56;27.82
3178;BME280;38141;42.666;23.344;2024-03-23T08:48:19;94644.38;;;27.88;25.43
3178;BME280;38141;42.666;23.344;2024-03-23T08:50:47;94656.06;;;28.35;24.67
3178;BME280;38141;42.666;23.344;2024-03-23T08:53:13;94655.81;;;29.20;24.11
3178;BME280;38141;42.666;23.344;2024-03-23T08:55:40;94658.66;;;29.70;22.78
3178;BME280;38141;42.666;23.344;2024-03-23T08:58:06;94646.94;;;33.76;20.85
3178;BME280;38141;42.666;23.344;2024-03-23T09:00:35;94654.44;;;32.98;20.65
3178;BME280;38141;42.666;23.344;2024-03-23T09:03:02;94645.53;;;34.93;18.77
3178;BME280;38141;42.666;23.344;2024-03-23T09:05:30;94629.75;;;32.11;20.87
3178;BME280;38141;42.666;23.344;2024-03-23T09:08:01;94627.97;;;31.13;20.92
3178;BME280;38141;42.666;23.344;2024-03-23T09:10:28;94623.88;;;29.26;22.09
3178;BME280;38141;42.666;23.344;2024-03-23T09:12:54;94622.38;;;29.70;22.59
3178;BME280;38141;42.666;23.344;2024-03-23T09:15:21;94608.03;;;31.63;20.96
3178;BME280;38141;42.666;23.344;2024-03-23T09:17:47;94611.50;;;29.44;21.91
3178;BME280;38141;42.666;23.344;2024-03-23T09:20:16;94597.50;;;29.83;22.61
3178;BME280;38141;42.666;23.344;2024-03-23T09:22:42;94603.13;;;31.74;20.60
3178;BME280;38141;42.666;23.344;2024-03-23T09:25:09;94606.16;;;34.01;18.99
3178;BME280;38141;42.666;23.344;2024-03-23T09:27:35;94606.78;;;33.94;19.43
3178;BME280;38141;42.666;23.344;2024-03-23T09:30:02;94599.47;;;33.59;19.54
3178;BME280;38141;42.666;23.344;2024-03-23T09:32:28;94587.78;;;33.87;18.99
3178;BME280;38141;42.666;23.344;2024-03-23T09:34:55;94583.09;;;35.29;18.49
3178;BME280;38141;42.666;23.344;2024-03-23T09:37:23;94566.81;;;34.67;18.22
3178;BME280;38141;42.666;23.344;2024-03-23T09:39:50;94580.03;;;33.48;19.11
3178;BME280;38141;42.666;23.344;2024-03-23T09:42:19;94574.84;;;37.90;16.96
3178;BME280;38141;42.666;23.344;2024-03-23T09:44:51;94541.50;;;37.50;16.94
3178;BME280;38141;42.666;23.344;2024-03-23T09:47:17;94526.25;;;37.76;16.83
3178;BME280;38141;42.666;23.344;2024-03-23T09:49:45;94551.25;;;34.66;18.44
3178;BME280;38141;42.666;23.344;2024-03-23T09:52:11;94541.78;;;31.17;20.10
3178;BME280;38141;42.666;23.344;2024-03-23T09:54:42;94544.84;;;32.21;20.09
3178;BME280;38141;42.666;23.344;2024-03-23T09:57:08;94519.59;;;32.03;19.67
3178;BME280;38141;42.666;23.344;2024-03-23T09:59:35;94540.34;;;30.17;20.80
3178;BME280;38141;42.666;23.344;2024-03-23T10:02:01;94486.34;;;28.96;22.32
3178;BME280;38141;42.666;23.344;2024-03-23T10:04:38;94502.75;;;30.29;20.81
3178;BME280;38141;42.666;23.344;2024-03-23T10:07:14;94481.66;;;30.34;21.55
3178;BME280;38141;42.666;23.344;2024-03-23T10:09:44;94504.78;;;30.23;21.43
3178;BME280;38141;42.666;23.344;2024-03-23T10:12:11;94479.66;;;27.56;22.88
3178;BME280;38141;42.666;23.344;2024-03-23T10:14:39;94475.03;;;27.48;23.30
3178;BME280;38141;42.666;23.344;2024-03-23T10:17:15;94471.75;;;27.07;23.98
3178;BME280;38141;42.666;23.344;2024-03-23T10:19:44;94502.50;;;28.64;22.65
3178;BME280;38141;42.666;23.344;2024-03-23T10:22:13;94446.84;;;26.24;24.58
3178;BME280;38141;42.666;23.344;2024-03-23T10:24:41;94463.03;;;24.30;26.46
3178;BME280;38141;42.666;23.344;2024-03-23T10:27:09;94447.19;;;25.65;25.81
3178;BME280;38141;42.666;23.344;2024-03-23T10:29:39;94460.50;;;26.07;25.29
3178;BME280;38141;42.666;23.344;2024-03-23T10:32:09;94444.44;;;26.37;24.96
3178;BME280;38141;42.666;23.344;2024-03-23T10:34:36;94461.78;;;26.32;25.17
3178;BME280;38141;42.666;23.344;2024-03-23T10:37:03;94431.91;;;26.21;25.02
3178;BME280;38141;42.666;23.344;2024-03-23T10:39:34;94474.03;;;26.77;24.79
3178;BME280;38141;42.666;23.344;2024-03-23T10:42:03;94421.19;;;26.97;23.92
3178;BME280;38141;42.666;23.344;2024-03-23T10:44:32;94426.44;;;26.89;24.16
3178;BME280;38141;42.666;23.344;2024-03-23T10:46:58;94414.03;;;26.53;23.79
3178;BME280;38141;42.666;23.344;2024-03-23T10:49:28;94402.44;;;27.29;22.64
3178;BME280;38141;42.666;23.344;2024-03-23T10:51:57;94415.09;;;28.00;21.87
3178;BME280;38141;42.666;23.344;2024-03-23T10:54:27;94429.03;;;27.47;22.39
3178;BME280;38141;42.666;23.344;2024-03-23T10:57:01;94422.88;;;27.85;22.14
3178;BME280;38141;42.666;23.344;2024-03-23T10:59:39;94423.03;;;27.54;22.81
3178;BME280;38141;42.666;23.344;2024-03-23T11:02:09;94422.47;;;25.61;24.77
3178;BME280;38141;42.666;23.344;2024-03-23T11:04:47;94399.72;;;25.17;24.89
3178;BME280;38141;42.666;23.344;2024-03-23T11:07:30;94404.06;;;26.10;23.67
3178;BME280;38141;42.666;23.344;2024-03-23T11:09:58;94399.50;;;27.49;22.66
3178;BME280;38141;42.666;23.344;2024-03-23T11:12:28;94397.09;;;27.79;21.84
3178;BME280;38141;42.666;23.344;2024-03-23T11:15:01;94390.66;;;26.97;22.94
3178;BME280;38141;42.666;23.344;2024-03-23T11:17:27;94392.31;;;27.26;22.76
3178;BME280;38141;42.666;23.344;2024-03-23T11:19:56;94378.63;;;25.60;24.58
3178;BME280;38141;42.666;23.344;2024-03-23T11:22:38;94373.19;;;25.97;24.39
3178;BME280;38141;42.666;23.344;2024-03-23T11:25:15;94375.03;;;26.31;23.93
3178;BME280;38141;42.666;23.344;2024-03-23T11:27:43;94355.13;;;26.70;23.58
3178;BME280;38141;42.666;23.344;2024-03-23T11:30:13;94358.09;;;26.61;23.38
3178;BME280;38141;42.666;23.344;2024-03-23T11:32:40;94361.44;;;26.33;23.77
3178;BME280;38141;42.666;23.344;2024-03-23T11:35:08;94346.13;;;25.40;24.57
3178;BME280;38141;42.666;23.344;2024-03-23T11:37:37;94355.56;;;24.88;24.97
3178;BME280;38141;42.666;23.344;2024-03-23T11:40:18;94351.88;;;25.57;24.58
3178;BME280;38141;42.666;23.344;2024-03-23T11:42:44;94343.03;;;24.92;25.32
3178;BME280;38141;42.666;23.344;2024-03-23T11:45:13;94338.97;;;24.73;25.04
3178;BME280;38141;42.666;23.344;2024-03-23T11:47:41;94325.47;;;25.41;24.74
3178;BME280;38141;42.666;23.344;2024-03-23T11:50:08;94327.03;;;25.68;24.17
3178;BME280;38141;42.666;23.344;2024-03-23T11:52:36;94307.00;;;26.10;24.20
3178;BME280;38141;42.666;23.344;2024-03-23T11:55:04;94320.06;;;24.16;26.05
3178;BME280;38141;42.666;23.344;2024-03-23T11:57:30;94302.44;;;23.70;26.35
3178;BME280;38141;42.666;23.344;2024-03-23T11:59:57;94308.91;;;22.75;27.84
3178;BME280;38141;42.666;23.344;2024-03-23T12:02:25;94312.53;;;22.81;27.79
3178;BME280;38141;42.666;23.344;2024-03-23T12:04:52;94285.66;;;23.59;27.27
3178;BME280;38141;42.666;23.344;2024-03-23T12:07:19;94285.66;;;23.44;26.67
3178;BME280;38141;42.666;23.344;2024-03-23T12:10:02;94277.03;;;22.74;27.81
3178;BME280;38141;42.666;23.344;2024-03-23T12:12:28;94287.50;;;23.09;27.51
3178;BME280;38141;42.666;23.344;2024-03-23T12:15:02;94279.31;;;23.53;27.43
3178;BME280;38141;42.666;23.344;2024-03-23T12:17:30;94279.06;;;24.00;26.80
3178;BME280;38141;42.666;23.344;2024-03-23T12:19:57;94265.47;;;23.67;27.00
3178;BME280;38141;42.666;23.344;2024-03-23T12:22:23;94256.97;;;23.41;27.27
3178;BME280;38141;42.666;23.344;2024-03-23T12:24:50;94264.91;;;22.95;27.73
3178;BME280;38141;42.666;23.344;2024-03-23T12:27:17;94260.59;;;23.33;27.28
3178;BME280;38141;42.666;23.344;2024-03-23T12:29:44;94255.00;;;23.57;27.03
3178;BME280;38141;42.666;23.344;2024-03-23T12:32:12;94263.75;;;22.63;27.46
3178;BME280;38141;42.666;23.344;2024-03-23T12:34:41;94252.69;;;23.26;26.44
3178;BME280;38141;42.666;23.344;2024-03-23T12:37:07;94245.97;;;23.56;26.24
3178;BME280;38141;42.666;23.344;2024-03-23T12:39:34;94236.25;;;23.61;26.15
3178;BME280;38141;42.666;23.344;2024-03-23T12:42:01;94227.75;;;23.49;26.83
3178;BME280;38141;42.666;23.344;2024-03-23T12:44:29;94212.63;;;23.60;26.45
3178;BME280;38141;42.666;23.344;2024-03-23T12:46:55;94224.78;;;23.82;26.22
3178;BME280;38141;42.666;23.344;2024-03-23T12:49:22;94224.03;;;23.23;26.10
3178;BME280;38141;42.666;23.344;2024-03-23T12:51:55;94221.75;;;23.22;25.86
3178;BME280;38141;42.666;23.344;2024-03-23T12:54:23;94221.53;;;22.96;26.13
3178;BME280;38141;42.666;23.344;2024-03-23T12:56:49;94213.16;;;22.90;26.80
3178;BME280;38141;42.666;23.344;2024-03-23T12:59:16;94218.69;;;23.05;25.80
3178;BME280;38141;42.666;23.344;2024-03-23T13:01:43;94205.22;;;23.51;25.08
3178;BME280;38141;42.666;23.344;2024-03-23T13:04:10;94208.88;;;22.89;24.42
3178;BME280;38141;42.666;23.344;2024-03-23T13:06:36;94186.63;;;23.08;23.76
3178;BME280;38141;42.666;23.344;2024-03-23T13:09:05;94191.84;;;22.52;24.66
3178;BME280;38141;42.666;23.344;2024-03-23T13:11:31;94192.38;;;22.18;23.24
3178;BME280;38141;42.666;23.344;2024-03-23T13:13:58;94187.75;;;22.24;23.38
3178;BME280;38141;42.666;23.344;2024-03-23T13:16:24;94186.13;;;21.94;23.45
3178;BME280;38141;42.666;23.344;2024-03-23T13:18:51;94155.97;;;22.14;23.16
3178;BME280;38141;42.666;23.344;2024-03-23T13:21:17;94173.97;;;22.48;23.49
3178;BME280;38141;42.666;23.344;2024-03-23T13:23:46;94171.22;;;22.00;23.37
3178;BME280;38141;42.666;23.344;2024-03-23T13:26:15;94141.47;;;21.57;23.31
3178;BME280;38141;42.666;23.344;2024-03-23T13:28:42;94165.00;;;21.58;23.75
3178;BME280;38141;42.666;23.344;2024-03-23T13:31:08;94171.66;;;21.42;23.64
3178;BME280;38141;42.666;23.344;2024-03-23T13:33:35;94163.63;;;21.53;23.78
3178;BME280;38141;42.666;23.344;2024-03-23T13:36:01;94152.03;;;21.49;23.75
3178;BME280;38141;42.666;23.344;2024-03-23T13:38:29;94157.41;;;21.77;23.83
3178;BME280;38141;42.666;23.344;2024-03-23T13:40:55;94162.84;;;21.62;24.29
3178;BME280;38141;42.666;23.344;2024-03-23T13:43:25;94146.88;;;21.42;23.79
3178;BME280;38141;42.666;23.344;2024-03-23T13:45:53;94137.84;;;21.74;24.93
3178;BME280;38141;42.666;23.344;2024-03-23T13:48:22;94137.66;;;21.78;24.17
3178;BME280;38141;42.666;23.344;2024-03-23T13:50:56;94131.47;;;21.92;24.04
3178;BME280;38141;42.666;23.344;2024-03-23T13:53:23;94132.53;;;21.38;24.11
3178;BME280;38141;42.666;23.344;2024-03-23T13:55:49;94132.47;;;21.14;24.08
3178;BME280;38141;42.666;23.344;2024-03-23T13:58:16;94127.13;;;21.02;24.04
3178;BME280;38141;42.666;23.344;2024-03-23T14:00:44;94120.66;;;21.23;24.05
3178;BME280;38141;42.666;23.344;2024-03-23T14:03:11;94135.03;;;21.18;24.32
3178;BME280;38141;42.666;23.344;2024-03-23T14:05:38;94135.56;;;21.40;24.86
3178;BME280;38141;42.666;23.344;2024-03-23T14:08:05;94104.09;;;21.32;23.87
3178;BME280;38141;42.666;23.344;2024-03-23T14:10:31;94114.34;;;21.32;23.83
3178;BME280;38141;42.666;23.344;2024-03-23T14:12:59;94125.44;;;20.95;24.76
3178;BME280;38141;42.666;23.344;2024-03-23T14:15:25;94095.19;;;20.44;24.73
3178;BME280;38141;42.666;23.344;2024-03-23T14:17:54;94111.03;;;20.58;25.06
3178;BME280;38141;42.666;23.344;2024-03-23T14:20:20;94121.16;;;20.94;24.99
3178;BME280;38141;42.666;23.344;2024-03-23T14:22:50;94096.38;;;20.61;24.59
3178;BME280;38141;42.666;23.344;2024-03-23T14:25:16;94096.56;;;20.12;25.08
3178;BME280;38141;42.666;23.344;2024-03-23T14:27:44;94112.28;;;20.21;25.50
3178;BME280;38141;42.666;23.344;2024-03-23T14:30:11;94095.47;;;20.19;25.71
3178;BME280;38141;42.666;23.344;2024-03-23T14:32:39;94111.22;;;20.36;24.44
3178;BME280;38141;42.666;23.344;2024-03-23T14:35:07;94103.09;;;20.15;24.76
3178;BME280;38141;42.666;23.344;2024-03-23T14:37:36;94072.56;;;20.13;25.01
3178;BME280;38141;42.666;23.344;2024-03-23T14:40:04;94100.69;;;20.44;24.89
3178;BME280;38141;42.666;23.344;2024-03-23T14:42:32;94058.56;;;20.11;25.63
3178;BME280;38141;42.666;23.344;2024-03-23T14:44:58;94092.75;;;20.37;25.59
3178;BME280;38141;42.666;23.344;2024-03-23T14:47:25;94088.94;;;20.34;25.20
3178;BME280;38141;42.666;23.344;2024-03-23T14:49:51;94087.56;;;20.03;25.85
3178;BME280;38141;42.666;23.344;2024-03-23T14:52:20;94072.13;;;19.87;25.61
3178;BME280;38141;42.666;23.344;2024-03-23T14:54:46;94064.22;;;19.89;26.37
3178;BME280;38141;42.666;23.344;2024-03-23T14:57:13;94080.53;;;19.92;25.98
3178;BME280;38141;42.666;23.344;2024-03-23T14:59:39;94069.09;;;19.94;25.22
3178;BME280;38141;42.666;23.344;2024-03-23T15:02:07;94063.91;;;20.05;25.22
3178;BME280;38141;42.666;23.344;2024-03-23T15:04:33;94061.59;;;20.04;25.39
3178;BME280;38141;42.666;23.344;2024-03-23T15:07:00;94081.59;;;20.13;26.11
3178;BME280;38141;42.666;23.344;2024-03-23T15:09:28;94074.09;;;20.14;25.54
3178;BME280;38141;42.666;23.344;2024-03-23T15:11:55;94067.25;;;19.91;25.51
3178;BME280;38141;42.666;23.344;2024-03-23T15:14:21;94059.94;;;20.06;26.00
3178;BME280;38141;42.666;23.344;2024-03-23T15:16:48;94035.50;;;19.72;26.09
3178;BME280;38141;42.666;23.344;2024-03-23T15:19:14;94060.50;;;19.56;26.15
3178;BME280;38141;42.666;23.344;2024-03-23T15:21:42;94044.81;;;19.56;25.77
3178;BME280;38141;42.666;23.344;2024-03-23T15:24:09;94063.88;;;19.60;25.74
3178;BME280;38141;42.666;23.344;2024-03-23T15:26:38;94046.13;;;19.33;25.73
3178;BME280;38141;42.666;23.344;2024-03-23T15:29:04;94066.91;;;19.43;25.76